sensor_id;sensor_type;location;lat;lon;timestamp;P1;durP1;ratioP1;P2;durP2;ratioP2
15202;SDS011;7702;51.046;5.184;2022-09-09T00:01:01;1.30;;;1.20;;
15202;SDS011;7702;51.046;5.184;2022-09-09T00:06:43;2.87;;;1.00;;
15202;SDS011;7702;51.046;5.184;2022-09-09T00:09:17;2.47;;;1.07;;
15202;SDS011;7702;51.046;5.184;2022-09-09T00:11:53;3.50;;;1.40;;
15202;SDS011;7702;51.046;5.184;2022-09-09T00:20:14;2.70;;;1.20;;
15202;SDS011;7702;51.046;5.184;2022-09-09T00:22:48;1.40;;;1.07;;
15202;SDS011;7702;51.046;5.184;2022-09-09T00:25:28;2.20;;;1.13;;
15202;SDS011;7702;51.046;5.184;2022-09-09T00:28:01;3.43;;;1.10;;
15202;SDS011;7702;51.046;5.184;2022-09-09T00:30:31;2.67;;;1.17;;
15202;SDS011;7702;51.046;5.184;2022-09-09T00:33:00;2.33;;;1.10;;
15202;SDS011;7702;51.046;5.184;2022-09-09T00:38:01;3.73;;;1.00;;
15202;SDS011;7702;51.046;5.184;2022-09-09T00:40:35;4.87;;;1.30;;
15202;SDS011;7702;51.046;5.184;2022-09-09T00:43:25;1.40;;;0.90;;
15202;SDS011;7702;51.046;5.184;2022-09-09T00:51:28;2.33;;;1.20;;
15202;SDS011;7702;51.046;5.184;2022-09-09T00:54:03;2.77;;;0.73;;
15202;SDS011;7702;51.046;5.184;2022-09-09T00:56:47;1.53;;;0.90;;
15202;SDS011;7702;51.046;5.184;2022-09-09T01:02:13;3.70;;;1.40;;
15202;SDS011;7702;51.046;5.184;2022-09-09T01:05:04;1.90;;;0.90;;
15202;SDS011;7702;51.046;5.184;2022-09-09T01:07:35;1.73;;;1.10;;
15202;SDS011;7702;51.046;5.184;2022-09-09T01:10:03;3.37;;;1.20;;
15202;SDS011;7702;51.046;5.184;2022-09-09T01:15:11;4.30;;;1.20;;
15202;SDS011;7702;51.046;5.184;2022-09-09T01:28:39;1.37;;;1.20;;
15202;SDS011;7702;51.046;5.184;2022-09-09T01:31:07;0.93;;;0.90;;
15202;SDS011;7702;51.046;5.184;2022-09-09T01:33:36;1.27;;;0.87;;
15202;SDS011;7702;51.046;5.184;2022-09-09T01:36:10;2.43;;;1.20;;
15202;SDS011;7702;51.046;5.184;2022-09-09T01:38:56;3.57;;;1.40;;
15202;SDS011;7702;51.046;5.184;2022-09-09T01:41:22;1.20;;;1.00;;
15202;SDS011;7702;51.046;5.184;2022-09-09T01:43:48;1.63;;;1.10;;
15202;SDS011;7702;51.046;5.184;2022-09-09T01:46:15;4.60;;;1.30;;
15202;SDS011;7702;51.046;5.184;2022-09-09T01:48:42;2.70;;;1.20;;
15202;SDS011;7702;51.046;5.184;2022-09-09T01:51:08;2.67;;;1.03;;
15202;SDS011;7702;51.046;5.184;2022-09-09T01:53:38;2.83;;;1.10;;
15202;SDS011;7702;51.046;5.184;2022-09-09T01:59:09;4.20;;;1.30;;
15202;SDS011;7702;51.046;5.184;2022-09-09T02:04:47;5.80;;;1.27;;
15202;SDS011;7702;51.046;5.184;2022-09-09T02:12:39;2.23;;;1.20;;
15202;SDS011;7702;51.046;5.184;2022-09-09T02:15:12;3.87;;;1.63;;
15202;SDS011;7702;51.046;5.184;2022-09-09T02:17:45;2.67;;;1.30;;
15202;SDS011;7702;51.046;5.184;2022-09-09T02:20:14;2.80;;;1.70;;
15202;SDS011;7702;51.046;5.184;2022-09-09T02:22:41;2.60;;;1.10;;
15202;SDS011;7702;51.046;5.184;2022-09-09T02:25:10;3.07;;;1.40;;
15202;SDS011;7702;51.046;5.184;2022-09-09T02:27:40;1.90;;;1.33;;
15202;SDS011;7702;51.046;5.184;2022-09-09T02:30:08;2.20;;;1.40;;
15202;SDS011;7702;51.046;5.184;2022-09-09T02:32:35;2.97;;;1.37;;
15202;SDS011;7702;51.046;5.184;2022-09-09T02:35:04;4.20;;;1.50;;
15202;SDS011;7702;51.046;5.184;2022-09-09T02:37:35;4.43;;;1.60;;
15202;SDS011;7702;51.046;5.184;2022-09-09T02:40:06;2.60;;;1.60;;
15202;SDS011;7702;51.046;5.184;2022-09-09T02:42:38;4.17;;;1.53;;
15202;SDS011;7702;51.046;5.184;2022-09-09T02:45:05;5.83;;;1.80;;
15202;SDS011;7702;51.046;5.184;2022-09-09T02:47:35;2.67;;;1.53;;
15202;SDS011;7702;51.046;5.184;2022-09-09T02:50:11;4.30;;;1.40;;
15202;SDS011;7702;51.046;5.184;2022-09-09T02:52:47;4.43;;;1.70;;
15202;SDS011;7702;51.046;5.184;2022-09-09T02:57:59;3.40;;;1.73;;
15202;SDS011;7702;51.046;5.184;2022-09-09T03:00:27;4.03;;;1.70;;
15202;SDS011;7702;51.046;5.184;2022-09-09T03:02:53;2.60;;;1.80;;
15202;SDS011;7702;51.046;5.184;2022-09-09T03:05:20;3.37;;;1.93;;
15202;SDS011;7702;51.046;5.184;2022-09-09T03:07:46;4.50;;;1.93;;
15202;SDS011;7702;51.046;5.184;2022-09-09T03:10:12;5.43;;;2.10;;
15202;SDS011;7702;51.046;5.184;2022-09-09T03:12:38;3.90;;;2.03;;
15202;SDS011;7702;51.046;5.184;2022-09-09T03:15:05;4.57;;;1.70;;
15202;SDS011;7702;51.046;5.184;2022-09-09T03:17:31;4.83;;;1.47;;
15202;SDS011;7702;51.046;5.184;2022-09-09T03:19:57;6.23;;;1.90;;
15202;SDS011;7702;51.046;5.184;2022-09-09T03:22:23;2.87;;;1.97;;
15202;SDS011;7702;51.046;5.184;2022-09-09T03:24:50;3.77;;;1.90;;
15202;SDS011;7702;51.046;5.184;2022-09-09T03:27:17;4.67;;;1.70;;
15202;SDS011;7702;51.046;5.184;2022-09-09T03:29:44;6.30;;;2.33;;
15202;SDS011;7702;51.046;5.184;2022-09-09T03:32:10;3.40;;;1.67;;
15202;SDS011;7702;51.046;5.184;2022-09-09T03:34:36;4.93;;;1.93;;
15202;SDS011;7702;51.046;5.184;2022-09-09T03:37:04;6.03;;;1.70;;
15202;SDS011;7702;51.046;5.184;2022-09-09T03:39:30;4.33;;;1.90;;
15202;SDS011;7702;51.046;5.184;2022-09-09T03:41:56;5.57;;;1.77;;
15202;SDS011;7702;51.046;5.184;2022-09-09T03:44:22;6.63;;;1.80;;
15202;SDS011;7702;51.046;5.184;2022-09-09T03:46:47;4.93;;;2.00;;
15202;SDS011;7702;51.046;5.184;2022-09-09T03:49:13;5.27;;;1.83;;
15202;SDS011;7702;51.046;5.184;2022-09-09T03:51:39;8.13;;;2.10;;
15202;SDS011;7702;51.046;5.184;2022-09-09T03:54:05;6.37;;;2.00;;
15202;SDS011;7702;51.046;5.184;2022-09-09T03:56:34;3.70;;;1.83;;
15202;SDS011;7702;51.046;5.184;2022-09-09T03:59:00;7.20;;;1.93;;
15202;SDS011;7702;51.046;5.184;2022-09-09T04:01:25;4.63;;;2.00;;
15202;SDS011;7702;51.046;5.184;2022-09-09T04:03:52;6.23;;;2.33;;
15202;SDS011;7702;51.046;5.184;2022-09-09T04:06:18;4.37;;;1.90;;
15202;SDS011;7702;51.046;5.184;2022-09-09T04:08:46;3.60;;;2.00;;
15202;SDS011;7702;51.046;5.184;2022-09-09T04:11:14;4.53;;;1.90;;
15202;SDS011;7702;51.046;5.184;2022-09-09T04:13:40;4.93;;;1.90;;
15202;SDS011;7702;51.046;5.184;2022-09-09T04:16:06;5.07;;;2.00;;
15202;SDS011;7702;51.046;5.184;2022-09-09T04:18:35;3.90;;;2.10;;
15202;SDS011;7702;51.046;5.184;2022-09-09T04:21:00;8.47;;;2.10;;
15202;SDS011;7702;51.046;5.184;2022-09-09T04:23:27;6.33;;;2.30;;
15202;SDS011;7702;51.046;5.184;2022-09-09T04:25:54;5.07;;;2.40;;
15202;SDS011;7702;51.046;5.184;2022-09-09T04:28:21;5.97;;;2.57;;
15202;SDS011;7702;51.046;5.184;2022-09-09T04:30:48;7.50;;;1.90;;
15202;SDS011;7702;51.046;5.184;2022-09-09T04:33:14;6.63;;;2.30;;
15202;SDS011;7702;51.046;5.184;2022-09-09T04:35:46;5.63;;;1.73;;
15202;SDS011;7702;51.046;5.184;2022-09-09T04:38:13;6.20;;;2.17;;
15202;SDS011;7702;51.046;5.184;2022-09-09T04:40:43;10.80;;;2.07;;
15202;SDS011;7702;51.046;5.184;2022-09-09T04:43:12;9.03;;;2.03;;
15202;SDS011;7702;51.046;5.184;2022-09-09T04:45:39;6.93;;;1.73;;
15202;SDS011;7702;51.046;5.184;2022-09-09T04:48:06;5.50;;;1.80;;
15202;SDS011;7702;51.046;5.184;2022-09-09T04:50:32;8.17;;;2.10;;
15202;SDS011;7702;51.046;5.184;2022-09-09T04:53:02;7.67;;;1.90;;
15202;SDS011;7702;51.046;5.184;2022-09-09T04:55:29;7.50;;;2.00;;
15202;SDS011;7702;51.046;5.184;2022-09-09T04:57:55;7.57;;;2.53;;
15202;SDS011;7702;51.046;5.184;2022-09-09T05:00:22;10.20;;;1.83;;
15202;SDS011;7702;51.046;5.184;2022-09-09T05:02:48;4.93;;;1.77;;
15202;SDS011;7702;51.046;5.184;2022-09-09T05:05:14;6.30;;;2.13;;
15202;SDS011;7702;51.046;5.184;2022-09-09T05:07:40;8.47;;;2.50;;
15202;SDS011;7702;51.046;5.184;2022-09-09T05:10:06;3.43;;;1.53;;
15202;SDS011;7702;51.046;5.184;2022-09-09T05:12:32;6.20;;;2.10;;
15202;SDS011;7702;51.046;5.184;2022-09-09T05:14:58;11.97;;;2.70;;
15202;SDS011;7702;51.046;5.184;2022-09-09T05:17:24;6.77;;;2.60;;
15202;SDS011;7702;51.046;5.184;2022-09-09T05:19:50;4.63;;;2.27;;
15202;SDS011;7702;51.046;5.184;2022-09-09T05:22:19;5.77;;;2.60;;
15202;SDS011;7702;51.046;5.184;2022-09-09T05:24:46;6.97;;;2.30;;
15202;SDS011;7702;51.046;5.184;2022-09-09T05:27:13;7.00;;;3.33;;
15202;SDS011;7702;51.046;5.184;2022-09-09T05:29:39;8.70;;;2.40;;
15202;SDS011;7702;51.046;5.184;2022-09-09T05:32:06;7.70;;;2.70;;
15202;SDS011;7702;51.046;5.184;2022-09-09T05:34:32;8.70;;;2.50;;
15202;SDS011;7702;51.046;5.184;2022-09-09T05:36:57;5.67;;;2.27;;
15202;SDS011;7702;51.046;5.184;2022-09-09T05:39:23;6.23;;;2.27;;
15202;SDS011;7702;51.046;5.184;2022-09-09T05:41:49;8.23;;;3.20;;
15202;SDS011;7702;51.046;5.184;2022-09-09T05:44:16;6.70;;;2.47;;
15202;SDS011;7702;51.046;5.184;2022-09-09T05:46:41;5.70;;;2.20;;
15202;SDS011;7702;51.046;5.184;2022-09-09T05:49:07;7.33;;;2.10;;
15202;SDS011;7702;51.046;5.184;2022-09-09T05:51:33;10.47;;;2.80;;
15202;SDS011;7702;51.046;5.184;2022-09-09T05:53:59;4.90;;;2.20;;
15202;SDS011;7702;51.046;5.184;2022-09-09T05:56:26;6.07;;;2.30;;
15202;SDS011;7702;51.046;5.184;2022-09-09T05:58:53;9.27;;;2.60;;
15202;SDS011;7702;51.046;5.184;2022-09-09T06:01:30;5.10;;;2.50;;
15202;SDS011;7702;51.046;5.184;2022-09-09T06:03:57;8.70;;;2.30;;
15202;SDS011;7702;51.046;5.184;2022-09-09T06:06:27;6.97;;;2.63;;
15202;SDS011;7702;51.046;5.184;2022-09-09T06:09:01;7.93;;;2.77;;
15202;SDS011;7702;51.046;5.184;2022-09-09T06:11:29;7.30;;;2.60;;
15202;SDS011;7702;51.046;5.184;2022-09-09T06:13:56;7.07;;;2.67;;
15202;SDS011;7702;51.046;5.184;2022-09-09T06:16:23;11.27;;;2.60;;
15202;SDS011;7702;51.046;5.184;2022-09-09T06:18:51;8.00;;;2.67;;
15202;SDS011;7702;51.046;5.184;2022-09-09T06:21:22;10.27;;;2.97;;
15202;SDS011;7702;51.046;5.184;2022-09-09T06:23:52;8.40;;;2.47;;
15202;SDS011;7702;51.046;5.184;2022-09-09T06:26:19;8.23;;;2.90;;
15202;SDS011;7702;51.046;5.184;2022-09-09T06:28:55;6.77;;;2.63;;
15202;SDS011;7702;51.046;5.184;2022-09-09T06:31:23;6.20;;;2.60;;
15202;SDS011;7702;51.046;5.184;2022-09-09T06:33:51;10.57;;;4.43;;
15202;SDS011;7702;51.046;5.184;2022-09-09T06:36:28;5.07;;;2.23;;
15202;SDS011;7702;51.046;5.184;2022-09-09T06:38:55;6.57;;;2.37;;
15202;SDS011;7702;51.046;5.184;2022-09-09T06:41:23;6.33;;;2.00;;
15202;SDS011;7702;51.046;5.184;2022-09-09T06:43:52;7.67;;;1.83;;
15202;SDS011;7702;51.046;5.184;2022-09-09T06:46:22;5.37;;;2.10;;
15202;SDS011;7702;51.046;5.184;2022-09-09T06:48:52;4.67;;;1.83;;
15202;SDS011;7702;51.046;5.184;2022-09-09T06:51:24;6.80;;;1.93;;
15202;SDS011;7702;51.046;5.184;2022-09-09T06:53:55;9.73;;;2.23;;
15202;SDS011;7702;51.046;5.184;2022-09-09T06:58:58;7.03;;;2.10;;
15202;SDS011;7702;51.046;5.184;2022-09-09T07:01:35;5.77;;;1.83;;
15202;SDS011;7702;51.046;5.184;2022-09-09T07:04:03;6.17;;;2.20;;
15202;SDS011;7702;51.046;5.184;2022-09-09T07:06:33;5.33;;;2.00;;
15202;SDS011;7702;51.046;5.184;2022-09-09T07:09:03;6.57;;;2.10;;
15202;SDS011;7702;51.046;5.184;2022-09-09T07:11:31;8.20;;;2.27;;
15202;SDS011;7702;51.046;5.184;2022-09-09T07:14:02;5.70;;;2.13;;
15202;SDS011;7702;51.046;5.184;2022-09-09T07:16:29;6.53;;;2.10;;
15202;SDS011;7702;51.046;5.184;2022-09-09T07:18:56;6.57;;;1.77;;
15202;SDS011;7702;51.046;5.184;2022-09-09T07:21:26;6.20;;;2.23;;
15202;SDS011;7702;51.046;5.184;2022-09-09T07:23:52;6.63;;;1.93;;
15202;SDS011;7702;51.046;5.184;2022-09-09T07:26:19;6.10;;;2.30;;
15202;SDS011;7702;51.046;5.184;2022-09-09T07:28:48;6.00;;;1.97;;
15202;SDS011;7702;51.046;5.184;2022-09-09T07:31:15;6.27;;;2.00;;
15202;SDS011;7702;51.046;5.184;2022-09-09T07:33:42;7.27;;;2.10;;
15202;SDS011;7702;51.046;5.184;2022-09-09T07:36:09;10.60;;;2.77;;
15202;SDS011;7702;51.046;5.184;2022-09-09T07:38:41;2.63;;;1.90;;
15202;SDS011;7702;51.046;5.184;2022-09-09T07:41:12;4.63;;;2.27;;
15202;SDS011;7702;51.046;5.184;2022-09-09T07:43:39;6.57;;;1.97;;
15202;SDS011;7702;51.046;5.184;2022-09-09T07:46:07;8.60;;;2.47;;
15202;SDS011;7702;51.046;5.184;2022-09-09T07:48:33;6.63;;;2.07;;
15202;SDS011;7702;51.046;5.184;2022-09-09T07:51:09;6.17;;;1.97;;
15202;SDS011;7702;51.046;5.184;2022-09-09T07:53:37;3.73;;;1.90;;
15202;SDS011;7702;51.046;5.184;2022-09-09T07:56:05;3.80;;;1.80;;
15202;SDS011;7702;51.046;5.184;2022-09-09T07:58:34;8.37;;;2.20;;
15202;SDS011;7702;51.046;5.184;2022-09-09T08:01:00;8.53;;;1.80;;
15202;SDS011;7702;51.046;5.184;2022-09-09T08:03:43;5.73;;;2.50;;
15202;SDS011;7702;51.046;5.184;2022-09-09T08:06:10;8.03;;;2.43;;
15202;SDS011;7702;51.046;5.184;2022-09-09T08:08:37;5.70;;;1.73;;
15202;SDS011;7702;51.046;5.184;2022-09-09T08:13:39;5.30;;;1.80;;
15202;SDS011;7702;51.046;5.184;2022-09-09T08:16:16;5.83;;;2.23;;
15202;SDS011;7702;51.046;5.184;2022-09-09T08:18:44;12.30;;;2.93;;
15202;SDS011;7702;51.046;5.184;2022-09-09T08:23:40;6.20;;;1.90;;
15202;SDS011;7702;51.046;5.184;2022-09-09T08:26:09;7.47;;;2.13;;
15202;SDS011;7702;51.046;5.184;2022-09-09T08:28:39;4.97;;;1.60;;
15202;SDS011;7702;51.046;5.184;2022-09-09T08:31:14;6.97;;;2.53;;
15202;SDS011;7702;51.046;5.184;2022-09-09T08:33:41;4.87;;;1.77;;
15202;SDS011;7702;51.046;5.184;2022-09-09T08:36:11;7.87;;;1.97;;
15202;SDS011;7702;51.046;5.184;2022-09-09T08:38:42;7.10;;;2.57;;
15202;SDS011;7702;51.046;5.184;2022-09-09T08:47:06;9.87;;;1.90;;
15202;SDS011;7702;51.046;5.184;2022-09-09T08:52:54;6.57;;;2.00;;
15202;SDS011;7702;51.046;5.184;2022-09-09T09:11:25;6.67;;;2.00;;
15202;SDS011;7702;51.046;5.184;2022-09-09T09:13:53;4.30;;;1.90;;
15202;SDS011;7702;51.046;5.184;2022-09-09T09:16:30;5.67;;;1.60;;
15202;SDS011;7702;51.046;5.184;2022-09-09T09:19:19;5.80;;;1.93;;
15202;SDS011;7702;51.046;5.184;2022-09-09T09:21:50;3.77;;;1.70;;
15202;SDS011;7702;51.046;5.184;2022-09-09T09:30:24;7.00;;;1.87;;
15202;SDS011;7702;51.046;5.184;2022-09-09T09:35:26;6.63;;;2.07;;
15202;SDS011;7702;51.046;5.184;2022-09-09T09:37:52;5.83;;;1.97;;
15202;SDS011;7702;51.046;5.184;2022-09-09T09:40:18;6.57;;;1.90;;
15202;SDS011;7702;51.046;5.184;2022-09-09T09:45:26;5.13;;;2.17;;
15202;SDS011;7702;51.046;5.184;2022-09-09T09:48:00;7.17;;;1.83;;
15202;SDS011;7702;51.046;5.184;2022-09-09T09:50:27;4.17;;;2.30;;
15202;SDS011;7702;51.046;5.184;2022-09-09T09:52:55;6.67;;;2.47;;
15202;SDS011;7702;51.046;5.184;2022-09-09T09:55:23;5.90;;;2.63;;
15202;SDS011;7702;51.046;5.184;2022-09-09T09:57:50;5.00;;;2.20;;
15202;SDS011;7702;51.046;5.184;2022-09-09T10:00:25;6.50;;;2.47;;
15202;SDS011;7702;51.046;5.184;2022-09-09T10:02:51;7.93;;;2.50;;
15202;SDS011;7702;51.046;5.184;2022-09-09T10:05:27;10.73;;;2.63;;
15202;SDS011;7702;51.046;5.184;2022-09-09T10:08:02;5.93;;;2.43;;
15202;SDS011;7702;51.046;5.184;2022-09-09T10:10:42;6.00;;;3.07;;
15202;SDS011;7702;51.046;5.184;2022-09-09T10:13:26;4.47;;;2.60;;
15202;SDS011;7702;51.046;5.184;2022-09-09T10:21:57;8.77;;;3.17;;
15202;SDS011;7702;51.046;5.184;2022-09-09T10:30:17;6.97;;;3.00;;
15202;SDS011;7702;51.046;5.184;2022-09-09T10:32:46;5.23;;;2.80;;
15202;SDS011;7702;51.046;5.184;2022-09-09T10:35:35;5.93;;;3.00;;
15202;SDS011;7702;51.046;5.184;2022-09-09T10:54:29;4.20;;;2.70;;
15202;SDS011;7702;51.046;5.184;2022-09-09T10:57:10;6.83;;;3.07;;
15202;SDS011;7702;51.046;5.184;2022-09-09T10:59:43;5.43;;;2.93;;
15202;SDS011;7702;51.046;5.184;2022-09-09T11:02:15;6.90;;;2.93;;
15202;SDS011;7702;51.046;5.184;2022-09-09T11:05:36;6.87;;;3.03;;
15202;SDS011;7702;51.046;5.184;2022-09-09T11:07:40;6.20;;;2.67;;
15202;SDS011;7702;51.046;5.184;2022-09-09T11:10:19;5.47;;;2.47;;
15202;SDS011;7702;51.046;5.184;2022-09-09T11:12:48;7.07;;;2.57;;
15202;SDS011;7702;51.046;5.184;2022-09-09T11:15:18;6.70;;;3.00;;
15202;SDS011;7702;51.046;5.184;2022-09-09T11:17:58;7.47;;;3.00;;
15202;SDS011;7702;51.046;5.184;2022-09-09T11:20:26;6.17;;;3.30;;
15202;SDS011;7702;51.046;5.184;2022-09-09T11:22:55;5.60;;;2.80;;
15202;SDS011;7702;51.046;5.184;2022-09-09T11:25:33;6.93;;;2.90;;
15202;SDS011;7702;51.046;5.184;2022-09-09T11:31:03;6.77;;;2.77;;
15202;SDS011;7702;51.046;5.184;2022-09-09T11:34:01;7.93;;;2.50;;
15202;SDS011;7702;51.046;5.184;2022-09-09T11:42:20;6.33;;;3.00;;
15202;SDS011;7702;51.046;5.184;2022-09-09T11:44:48;5.53;;;2.97;;
15202;SDS011;7702;51.046;5.184;2022-09-09T11:47:22;3.50;;;2.30;;
15202;SDS011;7702;51.046;5.184;2022-09-09T11:49:51;5.53;;;3.00;;
15202;SDS011;7702;51.046;5.184;2022-09-09T11:52:36;5.90;;;2.60;;
15202;SDS011;7702;51.046;5.184;2022-09-09T11:55:11;5.83;;;2.53;;
15202;SDS011;7702;51.046;5.184;2022-09-09T11:57:37;4.77;;;2.30;;
15202;SDS011;7702;51.046;5.184;2022-09-09T12:00:04;6.43;;;2.57;;
15202;SDS011;7702;51.046;5.184;2022-09-09T12:02:31;5.93;;;2.10;;
15202;SDS011;7702;51.046;5.184;2022-09-09T12:07:38;7.77;;;2.43;;
15202;SDS011;7702;51.046;5.184;2022-09-09T12:12:54;5.83;;;2.30;;
15202;SDS011;7702;51.046;5.184;2022-09-09T12:15:25;5.13;;;2.60;;
15202;SDS011;7702;51.046;5.184;2022-09-09T12:17:54;5.10;;;2.13;;
15202;SDS011;7702;51.046;5.184;2022-09-09T12:20:30;5.43;;;2.50;;
15202;SDS011;7702;51.046;5.184;2022-09-09T12:28:43;4.97;;;1.97;;
15202;SDS011;7702;51.046;5.184;2022-09-09T12:31:41;4.17;;;1.87;;
15202;SDS011;7702;51.046;5.184;2022-09-09T12:37:06;4.97;;;1.53;;
15202;SDS011;7702;51.046;5.184;2022-09-09T12:39:58;4.33;;;1.43;;
15202;SDS011;7702;51.046;5.184;2022-09-09T12:42:27;2.60;;;1.20;;
15202;SDS011;7702;51.046;5.184;2022-09-09T12:47:22;4.50;;;1.40;;
15202;SDS011;7702;51.046;5.184;2022-09-09T12:49:52;1.70;;;1.00;;
15202;SDS011;7702;51.046;5.184;2022-09-09T12:54:57;4.13;;;1.37;;
15202;SDS011;7702;51.046;5.184;2022-09-09T12:57:25;4.47;;;1.23;;
15202;SDS011;7702;51.046;5.184;2022-09-09T13:00:33;4.83;;;1.67;;
15202;SDS011;7702;51.046;5.184;2022-09-09T13:03:41;3.60;;;1.43;;
15202;SDS011;7702;51.046;5.184;2022-09-09T13:05:45;3.13;;;1.20;;
15202;SDS011;7702;51.046;5.184;2022-09-09T13:08:12;3.50;;;1.70;;
15202;SDS011;7702;51.046;5.184;2022-09-09T13:10:52;4.07;;;1.80;;
15202;SDS011;7702;51.046;5.184;2022-09-09T13:13:30;3.03;;;1.37;;
15202;SDS011;7702;51.046;5.184;2022-09-09T13:15:58;4.30;;;1.50;;
15202;SDS011;7702;51.046;5.184;2022-09-09T13:18:29;1.83;;;1.20;;
15202;SDS011;7702;51.046;5.184;2022-09-09T13:20:59;2.77;;;1.13;;
15202;SDS011;7702;51.046;5.184;2022-09-09T13:23:32;2.67;;;1.30;;
15202;SDS011;7702;51.046;5.184;2022-09-09T13:26:03;3.43;;;1.60;;
15202;SDS011;7702;51.046;5.184;2022-09-09T13:28:33;2.03;;;1.03;;
15202;SDS011;7702;51.046;5.184;2022-09-09T13:31:04;3.10;;;1.07;;
15202;SDS011;7702;51.046;5.184;2022-09-09T13:33:34;4.00;;;1.40;;
15202;SDS011;7702;51.046;5.184;2022-09-09T13:36:05;4.17;;;1.50;;
15202;SDS011;7702;51.046;5.184;2022-09-09T13:38:40;4.00;;;1.87;;
15202;SDS011;7702;51.046;5.184;2022-09-09T13:41:23;3.23;;;1.30;;
15202;SDS011;7702;51.046;5.184;2022-09-09T13:43:50;2.53;;;1.20;;
15202;SDS011;7702;51.046;5.184;2022-09-09T13:46:25;3.43;;;1.33;;
15202;SDS011;7702;51.046;5.184;2022-09-09T13:49:37;3.70;;;1.47;;
15202;SDS011;7702;51.046;5.184;2022-09-09T13:51:47;2.37;;;1.20;;
15202;SDS011;7702;51.046;5.184;2022-09-09T13:54:19;4.30;;;1.13;;
15202;SDS011;7702;51.046;5.184;2022-09-09T13:56:46;2.13;;;1.77;;
15202;SDS011;7702;51.046;5.184;2022-09-09T13:59:15;1.97;;;1.10;;
15202;SDS011;7702;51.046;5.184;2022-09-09T14:01:44;2.73;;;1.30;;
15202;SDS011;7702;51.046;5.184;2022-09-09T14:04:11;2.93;;;1.40;;
15202;SDS011;7702;51.046;5.184;2022-09-09T14:06:37;2.60;;;1.20;;
15202;SDS011;7702;51.046;5.184;2022-09-09T14:09:09;3.60;;;1.20;;
15202;SDS011;7702;51.046;5.184;2022-09-09T14:11:37;4.87;;;1.50;;
15202;SDS011;7702;51.046;5.184;2022-09-09T14:14:03;1.97;;;1.00;;
15202;SDS011;7702;51.046;5.184;2022-09-09T14:16:29;4.40;;;1.40;;
15202;SDS011;7702;51.046;5.184;2022-09-09T14:18:55;3.10;;;1.03;;
15202;SDS011;7702;51.046;5.184;2022-09-09T14:21:24;3.00;;;1.20;;
15202;SDS011;7702;51.046;5.184;2022-09-09T14:23:50;2.77;;;1.20;;
15202;SDS011;7702;51.046;5.184;2022-09-09T14:26:17;3.37;;;1.63;;
15202;SDS011;7702;51.046;5.184;2022-09-09T14:28:46;5.53;;;1.40;;
15202;SDS011;7702;51.046;5.184;2022-09-09T14:31:12;2.27;;;1.13;;
15202;SDS011;7702;51.046;5.184;2022-09-09T14:33:38;3.60;;;0.97;;
15202;SDS011;7702;51.046;5.184;2022-09-09T14:36:05;1.43;;;0.90;;
15202;SDS011;7702;51.046;5.184;2022-09-09T14:38:32;1.63;;;1.07;;
15202;SDS011;7702;51.046;5.184;2022-09-09T14:41:03;2.70;;;1.30;;
15202;SDS011;7702;51.046;5.184;2022-09-09T14:43:29;2.27;;;1.00;;
15202;SDS011;7702;51.046;5.184;2022-09-09T14:45:57;2.53;;;1.00;;
15202;SDS011;7702;51.046;5.184;2022-09-09T14:48:33;3.33;;;1.10;;
15202;SDS011;7702;51.046;5.184;2022-09-09T14:51:06;1.27;;;0.90;;
15202;SDS011;7702;51.046;5.184;2022-09-09T14:53:37;2.90;;;0.97;;
15202;SDS011;7702;51.046;5.184;2022-09-09T14:56:07;2.73;;;1.43;;
15202;SDS011;7702;51.046;5.184;2022-09-09T14:58:35;1.10;;;0.80;;
15202;SDS011;7702;51.046;5.184;2022-09-09T15:01:03;1.63;;;0.83;;
15202;SDS011;7702;51.046;5.184;2022-09-09T15:03:30;1.73;;;0.80;;
15202;SDS011;7702;51.046;5.184;2022-09-09T15:05:55;2.30;;;1.03;;
15202;SDS011;7702;51.046;5.184;2022-09-09T15:08:23;2.33;;;1.20;;
15202;SDS011;7702;51.046;5.184;2022-09-09T15:10:49;3.67;;;1.10;;
15202;SDS011;7702;51.046;5.184;2022-09-09T15:13:15;1.27;;;1.10;;
15202;SDS011;7702;51.046;5.184;2022-09-09T15:15:42;2.00;;;0.80;;
15202;SDS011;7702;51.046;5.184;2022-09-09T15:18:08;3.07;;;1.50;;
15202;SDS011;7702;51.046;5.184;2022-09-09T15:20:34;3.60;;;0.97;;
15202;SDS011;7702;51.046;5.184;2022-09-09T15:23:02;3.13;;;1.10;;
15202;SDS011;7702;51.046;5.184;2022-09-09T15:25:28;1.67;;;1.00;;
15202;SDS011;7702;51.046;5.184;2022-09-09T15:27:54;2.30;;;1.27;;
15202;SDS011;7702;51.046;5.184;2022-09-09T15:30:21;2.53;;;1.20;;
15202;SDS011;7702;51.046;5.184;2022-09-09T15:32:46;1.97;;;1.10;;
15202;SDS011;7702;51.046;5.184;2022-09-09T15:35:12;3.83;;;1.23;;
15202;SDS011;7702;51.046;5.184;2022-09-09T15:37:38;3.70;;;1.13;;
15202;SDS011;7702;51.046;5.184;2022-09-09T15:40:03;1.80;;;1.20;;
15202;SDS011;7702;51.046;5.184;2022-09-09T15:42:29;7.43;;;1.30;;
15202;SDS011;7702;51.046;5.184;2022-09-09T15:44:55;2.87;;;1.10;;
15202;SDS011;7702;51.046;5.184;2022-09-09T15:47:22;1.63;;;1.20;;
15202;SDS011;7702;51.046;5.184;2022-09-09T15:49:47;3.50;;;1.33;;
15202;SDS011;7702;51.046;5.184;2022-09-09T15:52:13;3.03;;;1.20;;
15202;SDS011;7702;51.046;5.184;2022-09-09T15:54:39;2.53;;;1.20;;
15202;SDS011;7702;51.046;5.184;2022-09-09T15:57:05;1.20;;;0.93;;
15202;SDS011;7702;51.046;5.184;2022-09-09T15:59:33;2.20;;;1.40;;
15202;SDS011;7702;51.046;5.184;2022-09-09T16:01:59;1.97;;;1.20;;
15202;SDS011;7702;51.046;5.184;2022-09-09T16:04:26;2.17;;;1.40;;
15202;SDS011;7702;51.046;5.184;2022-09-09T16:06:54;4.00;;;2.07;;
15202;SDS011;7702;51.046;5.184;2022-09-09T16:09:23;4.77;;;1.40;;
15202;SDS011;7702;51.046;5.184;2022-09-09T16:11:49;2.33;;;1.70;;
15202;SDS011;7702;51.046;5.184;2022-09-09T16:14:15;2.80;;;1.03;;
15202;SDS011;7702;51.046;5.184;2022-09-09T16:16:41;1.67;;;1.10;;
15202;SDS011;7702;51.046;5.184;2022-09-09T16:19:08;1.53;;;1.20;;
15202;SDS011;7702;51.046;5.184;2022-09-09T16:21:37;2.57;;;1.23;;
15202;SDS011;7702;51.046;5.184;2022-09-09T16:24:05;4.73;;;1.50;;
15202;SDS011;7702;51.046;5.184;2022-09-09T16:26:33;2.27;;;1.30;;
15202;SDS011;7702;51.046;5.184;2022-09-09T16:29:00;2.60;;;1.23;;
15202;SDS011;7702;51.046;5.184;2022-09-09T16:31:28;1.47;;;1.03;;
15202;SDS011;7702;51.046;5.184;2022-09-09T16:33:54;2.37;;;1.30;;
15202;SDS011;7702;51.046;5.184;2022-09-09T16:36:24;1.87;;;1.00;;
15202;SDS011;7702;51.046;5.184;2022-09-09T16:38:55;1.80;;;0.57;;
15202;SDS011;7702;51.046;5.184;2022-09-09T16:41:22;1.73;;;0.80;;
15202;SDS011;7702;51.046;5.184;2022-09-09T16:43:53;0.90;;;0.40;;
15202;SDS011;7702;51.046;5.184;2022-09-09T16:46:20;0.57;;;0.50;;
15202;SDS011;7702;51.046;5.184;2022-09-09T16:48:47;0.77;;;0.30;;
15202;SDS011;7702;51.046;5.184;2022-09-09T16:51:18;1.53;;;0.60;;
15202;SDS011;7702;51.046;5.184;2022-09-09T16:53:46;1.53;;;0.50;;
15202;SDS011;7702;51.046;5.184;2022-09-09T16:56:13;1.23;;;0.93;;
15202;SDS011;7702;51.046;5.184;2022-09-09T16:58:40;1.30;;;1.13;;
15202;SDS011;7702;51.046;5.184;2022-09-09T17:01:08;2.23;;;0.90;;
15202;SDS011;7702;51.046;5.184;2022-09-09T17:03:36;3.20;;;1.37;;
15202;SDS011;7702;51.046;5.184;2022-09-09T17:06:02;1.77;;;0.90;;
15202;SDS011;7702;51.046;5.184;2022-09-09T17:08:33;2.30;;;1.00;;
15202;SDS011;7702;51.046;5.184;2022-09-09T17:10:58;4.27;;;1.10;;
15202;SDS011;7702;51.046;5.184;2022-09-09T17:13:24;2.50;;;0.90;;
15202;SDS011;7702;51.046;5.184;2022-09-09T17:15:51;3.13;;;1.60;;
15202;SDS011;7702;51.046;5.184;2022-09-09T17:18:17;2.47;;;1.00;;
15202;SDS011;7702;51.046;5.184;2022-09-09T17:20:42;2.57;;;1.27;;
15202;SDS011;7702;51.046;5.184;2022-09-09T17:23:11;1.50;;;1.40;;
15202;SDS011;7702;51.046;5.184;2022-09-09T17:25:40;2.97;;;1.43;;
15202;SDS011;7702;51.046;5.184;2022-09-09T17:28:06;3.13;;;1.27;;
15202;SDS011;7702;51.046;5.184;2022-09-09T17:30:35;1.53;;;1.20;;
15202;SDS011;7702;51.046;5.184;2022-09-09T17:33:02;2.23;;;1.27;;
15202;SDS011;7702;51.046;5.184;2022-09-09T17:35:29;5.73;;;2.07;;
15202;SDS011;7702;51.046;5.184;2022-09-09T17:37:55;4.93;;;2.00;;
15202;SDS011;7702;51.046;5.184;2022-09-09T17:40:21;4.40;;;1.83;;
15202;SDS011;7702;51.046;5.184;2022-09-09T17:42:47;2.97;;;1.70;;